sensor_id;sensor_type;location;lat;lon;timestamp;P1;durP1;ratioP1;P2;durP2;ratioP2
39864;SDS011;25538;48.392;9.976;2022-12-29T00:02:07;4.03;;;3.72;;
39864;SDS011;25538;48.392;9.976;2022-12-29T00:04:33;4.03;;;3.63;;
39864;SDS011;25538;48.392;9.976;2022-12-29T00:07:00;4.63;;;4.32;;
39864;SDS011;25538;48.392;9.976;2022-12-29T00:09:26;4.30;;;3.90;;
39864;SDS011;25538;48.392;9.976;2022-12-29T00:11:52;4.15;;;3.45;;
39864;SDS011;25538;48.392;9.976;2022-12-29T00:14:18;4.30;;;3.90;;
39864;SDS011;25538;48.392;9.976;2022-12-29T00:17:03;3.33;;;3.13;;
39864;SDS011;25538;48.392;9.976;2022-12-29T00:19:29;5.10;;;3.63;;
39864;SDS011;25538;48.392;9.976;2022-12-29T00:22:13;4.78;;;4.38;;
39864;SDS011;25538;48.392;9.976;2022-12-29T00:24:58;3.70;;;3.40;;
39864;SDS011;25538;48.392;9.976;2022-12-29T00:27:43;4.60;;;3.50;;
39864;SDS011;25538;48.392;9.976;2022-12-29T00:30:27;4.65;;;4.25;;
39864;SDS011;25538;48.392;9.976;2022-12-29T00:33:13;6.57;;;5.63;;
39864;SDS011;25538;48.392;9.976;2022-12-29T00:36:12;4.35;;;3.95;;
39864;SDS011;25538;48.392;9.976;2022-12-29T00:38:45;7.47;;;5.53;;
39864;SDS011;25538;48.392;9.976;2022-12-29T00:41:33;5.75;;;5.25;;
39864;SDS011;25538;48.392;9.976;2022-12-29T00:44:17;5.18;;;4.78;;
39864;SDS011;25538;48.392;9.976;2022-12-29T00:46:43;6.95;;;6.13;;
39864;SDS011;25538;48.392;9.976;2022-12-29T00:49:10;6.65;;;5.40;;
39864;SDS011;25538;48.392;9.976;2022-12-29T00:51:57;6.50;;;5.90;;
39864;SDS011;25538;48.392;9.976;2022-12-29T00:54:32;6.15;;;5.55;;
39864;SDS011;25538;48.392;9.976;2022-12-29T00:56:59;5.45;;;4.80;;
39864;SDS011;25538;48.392;9.976;2022-12-29T00:59:25;6.00;;;5.40;;
39864;SDS011;25538;48.392;9.976;2022-12-29T01:01:52;5.00;;;4.60;;
39864;SDS011;25538;48.392;9.976;2022-12-29T01:04:20;4.72;;;4.30;;
39864;SDS011;25538;48.392;9.976;2022-12-29T01:06:47;5.88;;;5.38;;
39864;SDS011;25538;48.392;9.976;2022-12-29T01:09:14;5.40;;;5.00;;
39864;SDS011;25538;48.392;9.976;2022-12-29T01:11:59;5.53;;;5.03;;
39864;SDS011;25538;48.392;9.976;2022-12-29T01:14:25;5.67;;;4.90;;
39864;SDS011;25538;48.392;9.976;2022-12-29T01:16:52;5.40;;;4.95;;
39864;SDS011;25538;48.392;9.976;2022-12-29T01:19:18;5.55;;;5.05;;
39864;SDS011;25538;48.392;9.976;2022-12-29T01:21:45;4.95;;;4.55;;
39864;SDS011;25538;48.392;9.976;2022-12-29T01:24:12;4.63;;;4.22;;
39864;SDS011;25538;48.392;9.976;2022-12-29T01:26:38;4.50;;;4.10;;
39864;SDS011;25538;48.392;9.976;2022-12-29T01:29:13;5.10;;;4.10;;
39864;SDS011;25538;48.392;9.976;2022-12-29T01:31:39;4.40;;;4.00;;
39864;SDS011;25538;48.392;9.976;2022-12-29T01:34:05;3.80;;;3.50;;
39864;SDS011;25538;48.392;9.976;2022-12-29T01:36:31;4.60;;;3.78;;
39864;SDS011;25538;48.392;9.976;2022-12-29T01:38:58;3.80;;;3.50;;
39864;SDS011;25538;48.392;9.976;2022-12-29T01:41:24;4.23;;;3.83;;
39864;SDS011;25538;48.392;9.976;2022-12-29T01:51:34;4.45;;;3.90;;
39864;SDS011;25538;48.392;9.976;2022-12-29T01:54:16;4.25;;;3.25;;
39864;SDS011;25538;48.392;9.976;2022-12-29T01:56:48;3.78;;;3.42;;
39864;SDS011;25538;48.392;9.976;2022-12-29T01:59:17;4.00;;;3.67;;
39864;SDS011;25538;48.392;9.976;2022-12-29T02:01:48;4.20;;;3.80;;
39864;SDS011;25538;48.392;9.976;2022-12-29T02:04:14;4.32;;;3.92;;
39864;SDS011;25538;48.392;9.976;2022-12-29T02:07:23;4.43;;;4.00;;
39864;SDS011;25538;48.392;9.976;2022-12-29T02:09:33;4.40;;;4.00;;
39864;SDS011;25538;48.392;9.976;2022-12-29T02:11:58;4.53;;;4.23;;
39864;SDS011;25538;48.392;9.976;2022-12-29T02:14:25;5.32;;;4.82;;
39864;SDS011;25538;48.392;9.976;2022-12-29T02:17:01;4.88;;;4.47;;
39864;SDS011;25538;48.392;9.976;2022-12-29T02:19:51;5.03;;;4.53;;
39864;SDS011;25538;48.392;9.976;2022-12-29T02:27:50;5.75;;;4.30;;
39864;SDS011;25538;48.392;9.976;2022-12-29T02:33:19;4.93;;;4.53;;
39864;SDS011;25538;48.392;9.976;2022-12-29T02:36:01;4.85;;;4.25;;
39864;SDS011;25538;48.392;9.976;2022-12-29T02:44:14;4.70;;;4.32;;
39864;SDS011;25538;48.392;9.976;2022-12-29T02:47:03;4.38;;;3.97;;
39864;SDS011;25538;48.392;9.976;2022-12-29T02:49:38;3.72;;;3.42;;
39864;SDS011;25538;48.392;9.976;2022-12-29T02:52:16;3.88;;;3.58;;
39864;SDS011;25538;48.392;9.976;2022-12-29T02:54:47;4.18;;;3.80;;
39864;SDS011;25538;48.392;9.976;2022-12-29T02:57:15;3.58;;;3.35;;
39864;SDS011;25538;48.392;9.976;2022-12-29T02:59:43;4.40;;;4.10;;
39864;SDS011;25538;48.392;9.976;2022-12-29T03:02:20;3.97;;;3.67;;
39864;SDS011;25538;48.392;9.976;2022-12-29T03:05:09;6.35;;;3.80;;
39864;SDS011;25538;48.392;9.976;2022-12-29T03:12:48;5.80;;;3.58;;
39864;SDS011;25538;48.392;9.976;2022-12-29T03:16:07;3.83;;;3.53;;
39864;SDS011;25538;48.392;9.976;2022-12-29T03:21:42;3.70;;;3.20;;
39864;SDS011;25538;48.392;9.976;2022-12-29T03:24:31;3.67;;;3.38;;
39864;SDS011;25538;48.392;9.976;2022-12-29T03:27:00;3.58;;;3.28;;
39864;SDS011;25538;48.392;9.976;2022-12-29T03:29:29;3.00;;;2.80;;
39864;SDS011;25538;48.392;9.976;2022-12-29T03:31:58;2.90;;;2.70;;
39864;SDS011;25538;48.392;9.976;2022-12-29T03:34:25;2.78;;;2.58;;
39864;SDS011;25538;48.392;9.976;2022-12-29T03:36:53;3.50;;;3.20;;
39864;SDS011;25538;48.392;9.976;2022-12-29T03:39:40;3.00;;;2.70;;
39864;SDS011;25538;48.392;9.976;2022-12-29T03:42:11;3.30;;;3.00;;
39864;SDS011;25538;48.392;9.976;2022-12-29T03:44:49;2.40;;;2.20;;
39864;SDS011;25538;48.392;9.976;2022-12-29T03:47:21;3.45;;;3.15;;
39864;SDS011;25538;48.392;9.976;2022-12-29T03:49:47;3.47;;;3.17;;
39864;SDS011;25538;48.392;9.976;2022-12-29T03:52:14;3.35;;;2.30;;
39864;SDS011;25538;48.392;9.976;2022-12-29T03:54:40;2.92;;;2.75;;
39864;SDS011;25538;48.392;9.976;2022-12-29T03:57:06;3.33;;;3.03;;
39864;SDS011;25538;48.392;9.976;2022-12-29T03:59:33;3.17;;;2.88;;
39864;SDS011;25538;48.392;9.976;2022-12-29T04:01:59;4.07;;;2.80;;
39864;SDS011;25538;48.392;9.976;2022-12-29T04:04:25;2.70;;;2.50;;
39864;SDS011;25538;48.392;9.976;2022-12-29T04:06:50;2.97;;;2.77;;
39864;SDS011;25538;48.392;9.976;2022-12-29T04:09:16;2.47;;;2.38;;
39864;SDS011;25538;48.392;9.976;2022-12-29T04:11:42;3.53;;;2.73;;
39864;SDS011;25538;48.392;9.976;2022-12-29T04:14:08;3.47;;;2.53;;
39864;SDS011;25538;48.392;9.976;2022-12-29T04:16:34;2.50;;;2.30;;
39864;SDS011;25538;48.392;9.976;2022-12-29T04:19:04;5.32;;;2.65;;
39864;SDS011;25538;48.392;9.976;2022-12-29T04:21:31;2.47;;;2.28;;
39864;SDS011;25538;48.392;9.976;2022-12-29T04:23:56;2.80;;;2.50;;
39864;SDS011;25538;48.392;9.976;2022-12-29T04:26:22;3.08;;;2.80;;
39864;SDS011;25538;48.392;9.976;2022-12-29T04:28:48;2.27;;;2.00;;
39864;SDS011;25538;48.392;9.976;2022-12-29T04:31:14;3.10;;;2.80;;
39864;SDS011;25538;48.392;9.976;2022-12-29T04:33:40;3.03;;;2.80;;
39864;SDS011;25538;48.392;9.976;2022-12-29T04:36:06;1.83;;;1.73;;
39864;SDS011;25538;48.392;9.976;2022-12-29T04:38:32;2.70;;;2.50;;
39864;SDS011;25538;48.392;9.976;2022-12-29T04:41:01;2.33;;;2.13;;
39864;SDS011;25538;48.392;9.976;2022-12-29T04:43:27;2.97;;;2.67;;
39864;SDS011;25538;48.392;9.976;2022-12-29T04:45:54;2.70;;;2.47;;
39864;SDS011;25538;48.392;9.976;2022-12-29T04:48:20;4.07;;;3.33;;
39864;SDS011;25538;48.392;9.976;2022-12-29T04:50:47;2.78;;;2.28;;
39864;SDS011;25538;48.392;9.976;2022-12-29T04:53:14;2.50;;;2.30;;
39864;SDS011;25538;48.392;9.976;2022-12-29T04:55:40;1.95;;;1.85;;
39864;SDS011;25538;48.392;9.976;2022-12-29T04:58:06;3.23;;;2.17;;
39864;SDS011;25538;48.392;9.976;2022-12-29T05:00:32;2.30;;;2.10;;
39864;SDS011;25538;48.392;9.976;2022-12-29T05:02:58;2.83;;;2.10;;
39864;SDS011;25538;48.392;9.976;2022-12-29T05:05:24;2.20;;;2.10;;
39864;SDS011;25538;48.392;9.976;2022-12-29T05:07:50;1.93;;;1.83;;
39864;SDS011;25538;48.392;9.976;2022-12-29T05:10:16;3.00;;;2.70;;
39864;SDS011;25538;48.392;9.976;2022-12-29T05:12:42;3.37;;;2.70;;
39864;SDS011;25538;48.392;9.976;2022-12-29T05:15:08;5.53;;;2.40;;
39864;SDS011;25538;48.392;9.976;2022-12-29T05:17:36;2.65;;;2.28;;
39864;SDS011;25538;48.392;9.976;2022-12-29T05:20:03;2.75;;;2.50;;
39864;SDS011;25538;48.392;9.976;2022-12-29T05:22:29;4.47;;;2.92;;
39864;SDS011;25538;48.392;9.976;2022-12-29T05:24:55;2.40;;;2.30;;
39864;SDS011;25538;48.392;9.976;2022-12-29T05:27:21;2.73;;;2.53;;
39864;SDS011;25538;48.392;9.976;2022-12-29T05:29:47;3.00;;;2.70;;
39864;SDS011;25538;48.392;9.976;2022-12-29T05:32:13;2.73;;;2.53;;
39864;SDS011;25538;48.392;9.976;2022-12-29T05:34:39;3.70;;;2.90;;
39864;SDS011;25538;48.392;9.976;2022-12-29T05:37:05;3.57;;;2.50;;
39864;SDS011;25538;48.392;9.976;2022-12-29T05:39:31;2.60;;;2.40;;
39864;SDS011;25538;48.392;9.976;2022-12-29T05:41:56;3.10;;;2.80;;
39864;SDS011;25538;48.392;9.976;2022-12-29T05:44:22;3.20;;;2.60;;
39864;SDS011;25538;48.392;9.976;2022-12-29T05:46:48;2.60;;;2.40;;
39864;SDS011;25538;48.392;9.976;2022-12-29T05:49:15;3.40;;;2.60;;
39864;SDS011;25538;48.392;9.976;2022-12-29T05:51:41;2.60;;;2.40;;
39864;SDS011;25538;48.392;9.976;2022-12-29T05:54:07;3.03;;;2.80;;
39864;SDS011;25538;48.392;9.976;2022-12-29T05:56:33;3.30;;;3.00;;
39864;SDS011;25538;48.392;9.976;2022-12-29T05:58:59;3.57;;;2.77;;
39864;SDS011;25538;48.392;9.976;2022-12-29T06:01:25;2.65;;;2.45;;
39864;SDS011;25538;48.392;9.976;2022-12-29T06:03:51;2.50;;;2.30;;
39864;SDS011;25538;48.392;9.976;2022-12-29T06:06:16;2.10;;;1.90;;
39864;SDS011;25538;48.392;9.976;2022-12-29T06:08:42;2.80;;;2.50;;
39864;SDS011;25538;48.392;9.976;2022-12-29T06:11:08;2.77;;;2.43;;
39864;SDS011;25538;48.392;9.976;2022-12-29T06:13:34;2.57;;;2.37;;
39864;SDS011;25538;48.392;9.976;2022-12-29T06:16:00;4.65;;;3.10;;
39864;SDS011;25538;48.392;9.976;2022-12-29T06:18:27;2.90;;;2.70;;
39864;SDS011;25538;48.392;9.976;2022-12-29T06:20:53;2.20;;;2.10;;
39864;SDS011;25538;48.392;9.976;2022-12-29T06:23:18;2.27;;;2.17;;
39864;SDS011;25538;48.392;9.976;2022-12-29T06:25:46;2.67;;;2.47;;
39864;SDS011;25538;48.392;9.976;2022-12-29T06:28:13;3.10;;;2.80;;
39864;SDS011;25538;48.392;9.976;2022-12-29T06:30:39;3.10;;;2.83;;
39864;SDS011;25538;48.392;9.976;2022-12-29T06:33:05;4.00;;;2.95;;
39864;SDS011;25538;48.392;9.976;2022-12-29T06:35:33;3.05;;;2.60;;
39864;SDS011;25538;48.392;9.976;2022-12-29T06:37:59;3.20;;;2.57;;
39864;SDS011;25538;48.392;9.976;2022-12-29T06:40:25;3.40;;;3.20;;
39864;SDS011;25538;48.392;9.976;2022-12-29T06:42:50;2.83;;;2.37;;
39864;SDS011;25538;48.392;9.976;2022-12-29T06:45:16;2.60;;;2.42;;
39864;SDS011;25538;48.392;9.976;2022-12-29T06:47:42;3.00;;;2.80;;
39864;SDS011;25538;48.392;9.976;2022-12-29T06:50:08;2.67;;;2.47;;
39864;SDS011;25538;48.392;9.976;2022-12-29T06:52:34;3.33;;;2.70;;
39864;SDS011;25538;48.392;9.976;2022-12-29T06:55:00;3.22;;;2.70;;
39864;SDS011;25538;48.392;9.976;2022-12-29T06:57:26;4.53;;;2.50;;
39864;SDS011;25538;48.392;9.976;2022-12-29T06:59:52;3.90;;;2.70;;
39864;SDS011;25538;48.392;9.976;2022-12-29T07:02:21;3.15;;;2.95;;
39864;SDS011;25538;48.392;9.976;2022-12-29T07:04:47;3.40;;;2.63;;
39864;SDS011;25538;48.392;9.976;2022-12-29T07:07:13;2.90;;;2.70;;
39864;SDS011;25538;48.392;9.976;2022-12-29T07:09:39;3.37;;;3.07;;
39864;SDS011;25538;48.392;9.976;2022-12-29T07:12:05;4.57;;;3.00;;
39864;SDS011;25538;48.392;9.976;2022-12-29T07:14:31;3.92;;;3.35;;
39864;SDS011;25538;48.392;9.976;2022-12-29T07:16:57;3.37;;;3.17;;
39864;SDS011;25538;48.392;9.976;2022-12-29T07:19:22;3.87;;;3.30;;
39864;SDS011;25538;48.392;9.976;2022-12-29T07:21:48;3.30;;;3.00;;
39864;SDS011;25538;48.392;9.976;2022-12-29T07:24:14;5.50;;;3.30;;
39864;SDS011;25538;48.392;9.976;2022-12-29T07:26:40;3.70;;;3.40;;
39864;SDS011;25538;48.392;9.976;2022-12-29T07:29:06;3.53;;;3.22;;
39864;SDS011;25538;48.392;9.976;2022-12-29T07:31:32;3.92;;;3.63;;
39864;SDS011;25538;48.392;9.976;2022-12-29T07:33:58;5.40;;;3.77;;
39864;SDS011;25538;48.392;9.976;2022-12-29T07:36:24;4.17;;;3.77;;
39864;SDS011;25538;48.392;9.976;2022-12-29T07:38:50;3.83;;;3.40;;
39864;SDS011;25538;48.392;9.976;2022-12-29T07:41:16;3.43;;;3.17;;
39864;SDS011;25538;48.392;9.976;2022-12-29T07:43:42;3.50;;;3.30;;
39864;SDS011;25538;48.392;9.976;2022-12-29T07:46:08;6.07;;;5.40;;
39864;SDS011;25538;48.392;9.976;2022-12-29T07:48:35;5.05;;;4.55;;
39864;SDS011;25538;48.392;9.976;2022-12-29T07:51:01;4.88;;;4.20;;
39864;SDS011;25538;48.392;9.976;2022-12-29T07:53:27;3.83;;;3.37;;
39864;SDS011;25538;48.392;9.976;2022-12-29T07:55:52;5.13;;;3.87;;
39864;SDS011;25538;48.392;9.976;2022-12-29T07:58:18;3.80;;;3.47;;
39864;SDS011;25538;48.392;9.976;2022-12-29T08:00:44;4.20;;;3.83;;
39864;SDS011;25538;48.392;9.976;2022-12-29T08:03:10;4.00;;;3.40;;
39864;SDS011;25538;48.392;9.976;2022-12-29T08:05:36;5.20;;;3.87;;
39864;SDS011;25538;48.392;9.976;2022-12-29T08:08:02;3.90;;;3.60;;
39864;SDS011;25538;48.392;9.976;2022-12-29T08:10:28;5.97;;;4.20;;
39864;SDS011;25538;48.392;9.976;2022-12-29T08:12:54;4.07;;;3.70;;
39864;SDS011;25538;48.392;9.976;2022-12-29T08:15:20;4.47;;;4.10;;
39864;SDS011;25538;48.392;9.976;2022-12-29T08:17:45;4.10;;;3.80;;
39864;SDS011;25538;48.392;9.976;2022-12-29T08:20:11;4.20;;;3.90;;
39864;SDS011;25538;48.392;9.976;2022-12-29T08:22:37;3.70;;;3.40;;
39864;SDS011;25538;48.392;9.976;2022-12-29T08:25:03;4.33;;;3.90;;
39864;SDS011;25538;48.392;9.976;2022-12-29T08:27:30;3.83;;;3.53;;
39864;SDS011;25538;48.392;9.976;2022-12-29T08:29:55;4.10;;;3.50;;
39864;SDS011;25538;48.392;9.976;2022-12-29T08:32:21;3.90;;;3.60;;
39864;SDS011;25538;48.392;9.976;2022-12-29T08:34:47;5.20;;;4.50;;
39864;SDS011;25538;48.392;9.976;2022-12-29T08:37:13;5.07;;;4.10;;
39864;SDS011;25538;48.392;9.976;2022-12-29T08:39:39;4.43;;;4.03;;
39864;SDS011;25538;48.392;9.976;2022-12-29T08:42:05;4.40;;;4.00;;
39864;SDS011;25538;48.392;9.976;2022-12-29T08:44:31;4.57;;;4.25;;
39864;SDS011;25538;48.392;9.976;2022-12-29T08:46:57;5.63;;;3.97;;
39864;SDS011;25538;48.392;9.976;2022-12-29T08:49:23;4.50;;;3.60;;
39864;SDS011;25538;48.392;9.976;2022-12-29T08:51:49;4.43;;;4.03;;
39864;SDS011;25538;48.392;9.976;2022-12-29T08:54:15;6.20;;;3.90;;
39864;SDS011;25538;48.392;9.976;2022-12-29T08:56:41;8.60;;;4.10;;
39864;SDS011;25538;48.392;9.976;2022-12-29T08:59:07;6.40;;;3.87;;
39864;SDS011;25538;48.392;9.976;2022-12-29T09:01:33;3.10;;;2.90;;
39864;SDS011;25538;48.392;9.976;2022-12-29T09:04:01;3.90;;;3.47;;
39864;SDS011;25538;48.392;9.976;2022-12-29T09:06:27;5.43;;;3.95;;
39864;SDS011;25538;48.392;9.976;2022-12-29T09:08:54;3.53;;;3.23;;
39864;SDS011;25538;48.392;9.976;2022-12-29T09:11:21;4.00;;;3.63;;
39864;SDS011;25538;48.392;9.976;2022-12-29T09:13:49;5.72;;;5.20;;
39864;SDS011;25538;48.392;9.976;2022-12-29T09:16:15;5.03;;;4.50;;
39864;SDS011;25538;48.392;9.976;2022-12-29T09:18:42;4.45;;;3.72;;
39864;SDS011;25538;48.392;9.976;2022-12-29T09:21:09;3.90;;;3.20;;
39864;SDS011;25538;48.392;9.976;2022-12-29T09:23:36;4.30;;;3.85;;
39864;SDS011;25538;48.392;9.976;2022-12-29T09:26:03;3.92;;;3.63;;
39864;SDS011;25538;48.392;9.976;2022-12-29T09:28:29;4.18;;;3.60;;
39864;SDS011;25538;48.392;9.976;2022-12-29T09:30:56;3.95;;;3.65;;
39864;SDS011;25538;48.392;9.976;2022-12-29T09:33:22;3.92;;;3.53;;
39864;SDS011;25538;48.392;9.976;2022-12-29T09:35:53;4.20;;;3.53;;
39864;SDS011;25538;48.392;9.976;2022-12-29T09:38:20;4.82;;;3.85;;
39864;SDS011;25538;48.392;9.976;2022-12-29T09:40:50;4.57;;;4.18;;
39864;SDS011;25538;48.392;9.976;2022-12-29T09:46:08;4.13;;;3.80;;
39864;SDS011;25538;48.392;9.976;2022-12-29T09:48:39;5.35;;;4.38;;
39864;SDS011;25538;48.392;9.976;2022-12-29T09:51:10;4.07;;;3.70;;
39864;SDS011;25538;48.392;9.976;2022-12-29T09:53:45;4.22;;;3.83;;
39864;SDS011;25538;48.392;9.976;2022-12-29T09:56:17;5.65;;;4.10;;
39864;SDS011;25538;48.392;9.976;2022-12-29T09:59:08;4.57;;;4.00;;
39864;SDS011;25538;48.392;9.976;2022-12-29T10:01:44;4.20;;;3.90;;
39864;SDS011;25538;48.392;9.976;2022-12-29T10:04:18;4.82;;;4.05;;
39864;SDS011;25538;48.392;9.976;2022-12-29T10:06:51;4.20;;;3.90;;
39864;SDS011;25538;48.392;9.976;2022-12-29T10:20:44;4.47;;;4.07;;
39864;SDS011;25538;48.392;9.976;2022-12-29T10:23:45;5.70;;;3.42;;
39864;SDS011;25538;48.392;9.976;2022-12-29T10:26:23;4.93;;;4.45;;
39864;SDS011;25538;48.392;9.976;2022-12-29T10:28:56;4.35;;;3.80;;
39864;SDS011;25538;48.392;9.976;2022-12-29T10:34:28;5.20;;;4.70;;
39864;SDS011;25538;48.392;9.976;2022-12-29T10:37:24;6.80;;;4.35;;
39864;SDS011;25538;48.392;9.976;2022-12-29T10:39:55;5.55;;;4.18;;
39864;SDS011;25538;48.392;9.976;2022-12-29T10:44:56;5.07;;;4.30;;
39864;SDS011;25538;48.392;9.976;2022-12-29T10:47:28;6.13;;;4.65;;
39864;SDS011;25538;48.392;9.976;2022-12-29T10:49:59;4.20;;;3.80;;
39864;SDS011;25538;48.392;9.976;2022-12-29T10:52:26;3.92;;;3.60;;
39864;SDS011;25538;48.392;9.976;2022-12-29T10:54:58;4.28;;;3.88;;
39864;SDS011;25538;48.392;9.976;2022-12-29T10:57:35;4.75;;;4.35;;
39864;SDS011;25538;48.392;9.976;2022-12-29T11:00:10;5.20;;;4.68;;
39864;SDS011;25538;48.392;9.976;2022-12-29T11:08:02;3.65;;;3.33;;
39864;SDS011;25538;48.392;9.976;2022-12-29T11:13:03;4.03;;;3.50;;
39864;SDS011;25538;48.392;9.976;2022-12-29T11:15:38;3.97;;;3.25;;
39864;SDS011;25538;48.392;9.976;2022-12-29T11:20:58;3.92;;;2.70;;
39864;SDS011;25538;48.392;9.976;2022-12-29T11:23:38;2.58;;;2.38;;
39864;SDS011;25538;48.392;9.976;2022-12-29T11:26:13;3.97;;;2.45;;
39864;SDS011;25538;48.392;9.976;2022-12-29T11:28:47;3.80;;;2.67;;
39864;SDS011;25538;48.392;9.976;2022-12-29T11:31:39;3.35;;;3.05;;
39864;SDS011;25538;48.392;9.976;2022-12-29T11:34:15;3.42;;;2.80;;
39864;SDS011;25538;48.392;9.976;2022-12-29T11:36:43;4.15;;;2.80;;
39864;SDS011;25538;48.392;9.976;2022-12-29T11:39:20;3.17;;;2.87;;
39864;SDS011;25538;48.392;9.976;2022-12-29T11:42:16;3.58;;;3.28;;
39864;SDS011;25538;48.392;9.976;2022-12-29T11:44:45;4.63;;;2.70;;
39864;SDS011;25538;48.392;9.976;2022-12-29T11:47:29;2.58;;;2.38;;
39864;SDS011;25538;48.392;9.976;2022-12-29T11:49:58;4.55;;;3.72;;
39864;SDS011;25538;48.392;9.976;2022-12-29T11:52:28;3.13;;;2.92;;
39864;SDS011;25538;48.392;9.976;2022-12-29T11:54:58;4.45;;;3.00;;
39864;SDS011;25538;48.392;9.976;2022-12-29T11:57:26;7.22;;;3.42;;
39864;SDS011;25538;48.392;9.976;2022-12-29T11:59:54;5.88;;;3.35;;
39864;SDS011;25538;48.392;9.976;2022-12-29T12:05:11;3.60;;;2.90;;
39864;SDS011;25538;48.392;9.976;2022-12-29T12:07:48;4.25;;;3.53;;
39864;SDS011;25538;48.392;9.976;2022-12-29T12:13:00;3.35;;;3.00;;
39864;SDS011;25538;48.392;9.976;2022-12-29T12:15:34;3.30;;;3.00;;
39864;SDS011;25538;48.392;9.976;2022-12-29T12:18:08;3.83;;;3.42;;
39864;SDS011;25538;48.392;9.976;2022-12-29T12:28:33;7.38;;;3.80;;
39864;SDS011;25538;48.392;9.976;2022-12-29T12:31:04;4.80;;;3.40;;
39864;SDS011;25538;48.392;9.976;2022-12-29T12:33:44;3.53;;;3.22;;
39864;SDS011;25538;48.392;9.976;2022-12-29T12:36:15;5.20;;;3.20;;
39864;SDS011;25538;48.392;9.976;2022-12-29T12:44:24;6.10;;;4.10;;
39864;SDS011;25538;48.392;9.976;2022-12-29T12:55:04;4.05;;;3.40;;
39864;SDS011;25538;48.392;9.976;2022-12-29T13:00:25;5.68;;;3.50;;
39864;SDS011;25538;48.392;9.976;2022-12-29T13:03:00;4.18;;;3.20;;
39864;SDS011;25538;48.392;9.976;2022-12-29T13:11:49;4.70;;;3.40;;
39864;SDS011;25538;48.392;9.976;2022-12-29T13:14:33;3.28;;;2.97;;
39864;SDS011;25538;48.392;9.976;2022-12-29T13:17:29;4.18;;;3.40;;
39864;SDS011;25538;48.392;9.976;2022-12-29T13:20:07;3.83;;;3.00;;
39864;SDS011;25538;48.392;9.976;2022-12-29T13:25:42;5.18;;;3.40;;
39864;SDS011;25538;48.392;9.976;2022-12-29T13:28:31;4.40;;;3.60;;
39864;SDS011;25538;48.392;9.976;2022-12-29T13:36:48;3.50;;;3.20;;
39864;SDS011;25538;48.392;9.976;2022-12-29T13:39:21;3.83;;;3.33;;
39864;SDS011;25538;48.392;9.976;2022-12-29T13:41:52;2.95;;;2.65;;
39864;SDS011;25538;48.392;9.976;2022-12-29T13:44:22;5.22;;;3.20;;
39864;SDS011;25538;48.392;9.976;2022-12-29T13:46:52;3.88;;;2.78;;
39864;SDS011;25538;48.392;9.976;2022-12-29T13:49:20;3.03;;;2.80;;
39864;SDS011;25538;48.392;9.976;2022-12-29T13:51:50;3.55;;;3.25;;
39864;SDS011;25538;48.392;9.976;2022-12-29T13:54:25;5.22;;;3.30;;
39864;SDS011;25538;48.392;9.976;2022-12-29T13:57:08;3.55;;;3.25;;
39864;SDS011;25538;48.392;9.976;2022-12-29T13:59:51;6.35;;;2.45;;
39864;SDS011;25538;48.392;9.976;2022-12-29T14:07:49;3.53;;;3.28;;
39864;SDS011;25538;48.392;9.976;2022-12-29T14:10:35;4.78;;;3.28;;
39864;SDS011;25538;48.392;9.976;2022-12-29T14:15:43;3.50;;;3.30;;
39864;SDS011;25538;48.392;9.976;2022-12-29T14:18:17;5.25;;;2.88;;
39864;SDS011;25538;48.392;9.976;2022-12-29T14:20:49;4.32;;;3.40;;
39864;SDS011;25538;48.392;9.976;2022-12-29T14:23:43;3.53;;;3.22;;
39864;SDS011;25538;48.392;9.976;2022-12-29T14:26:15;4.82;;;3.90;;
39864;SDS011;25538;48.392;9.976;2022-12-29T14:29:15;3.17;;;2.90;;
39864;SDS011;25538;48.392;9.976;2022-12-29T14:31:51;3.90;;;3.20;;
39864;SDS011;25538;48.392;9.976;2022-12-29T14:39:27;3.15;;;2.85;;
39864;SDS011;25538;48.392;9.976;2022-12-29T14:47:18;3.20;;;3.00;;
39864;SDS011;25538;48.392;9.976;2022-12-29T14:49:47;5.65;;;3.25;;
39864;SDS011;25538;48.392;9.976;2022-12-29T14:52:15;3.30;;;3.00;;
39864;SDS011;25538;48.392;9.976;2022-12-29T14:57:28;4.28;;;3.80;;
39864;SDS011;25538;48.392;9.976;2022-12-29T15:02:49;3.40;;;3.10;;
39864;SDS011;25538;48.392;9.976;2022-12-29T15:05:30;3.67;;;2.60;;
39864;SDS011;25538;48.392;9.976;2022-12-29T15:08:03;4.65;;;2.83;;
39864;SDS011;25538;48.392;9.976;2022-12-29T15:10:36;2.78;;;2.60;;
39864;SDS011;25538;48.392;9.976;2022-12-29T15:13:13;3.25;;;2.80;;
39864;SDS011;25538;48.392;9.976;2022-12-29T15:15:42;4.35;;;3.83;;
39864;SDS011;25538;48.392;9.976;2022-12-29T15:18:15;5.68;;;3.63;;
39864;SDS011;25538;48.392;9.976;2022-12-29T15:20:56;3.75;;;3.08;;
39864;SDS011;25538;48.392;9.976;2022-12-29T15:23:24;3.55;;;3.28;;
39864;SDS011;25538;48.392;9.976;2022-12-29T15:25:53;4.38;;;3.45;;
39864;SDS011;25538;48.392;9.976;2022-12-29T15:28:36;4.10;;;3.70;;
39864;SDS011;25538;48.392;9.976;2022-12-29T15:31:16;4.20;;;3.13;;
39864;SDS011;25538;48.392;9.976;2022-12-29T15:33:43;5.97;;;3.80;;
39864;SDS011;25538;48.392;9.976;2022-12-29T15:36:20;8.13;;;4.63;;
39864;SDS011;25538;48.392;9.976;2022-12-29T15:38:48;4.75;;;4.35;;
39864;SDS011;25538;48.392;9.976;2022-12-29T15:41:24;3.40;;;2.95;;
39864;SDS011;25538;48.392;9.976;2022-12-29T15:49:49;5.25;;;4.32;;
39864;SDS011;25538;48.392;9.976;2022-12-29T15:52:19;6.15;;;3.83;;
39864;SDS011;25538;48.392;9.976;2022-12-29T15:54:47;4.85;;;4.00;;
39864;SDS011;25538;48.392;9.976;2022-12-29T15:57:26;4.80;;;4.40;;
39864;SDS011;25538;48.392;9.976;2022-12-29T15:59:55;7.50;;;4.90;;
39864;SDS011;25538;48.392;9.976;2022-12-29T16:02:22;4.93;;;4.43;;
39864;SDS011;25538;48.392;9.976;2022-12-29T16:04:49;5.03;;;4.63;;
39864;SDS011;25538;48.392;9.976;2022-12-29T16:07:34;5.38;;;4.57;;
39864;SDS011;25538;48.392;9.976;2022-12-29T16:10:02;4.82;;;4.43;;
39864;SDS011;25538;48.392;9.976;2022-12-29T16:12:33;4.95;;;4.55;;
39864;SDS011;25538;48.392;9.976;2022-12-29T16:15:03;4.70;;;4.10;;
39864;SDS011;25538;48.392;9.976;2022-12-29T16:17:41;5.55;;;3.80;;
39864;SDS011;25538;48.392;9.976;2022-12-29T16:20:15;3.85;;;3.55;;
39864;SDS011;25538;48.392;9.976;2022-12-29T16:22:48;4.75;;;4.32;;
39864;SDS011;25538;48.392;9.976;2022-12-29T16:25:24;4.55;;;4.15;;
39864;SDS011;25538;48.392;9.976;2022-12-29T16:27:56;5.32;;;4.82;;
39864;SDS011;25538;48.392;9.976;2022-12-29T16:30:27;5.28;;;4.80;;
39864;SDS011;25538;48.392;9.976;2022-12-29T16:32:56;5.00;;;4.60;;
39864;SDS011;25538;48.392;9.976;2022-12-29T16:43:31;6.30;;;5.65;;
39864;SDS011;25538;48.392;9.976;2022-12-29T16:48:35;5.97;;;5.33;;
39864;SDS011;25538;48.392;9.976;2022-12-29T16:51:13;10.02;;;6.40;;
39864;SDS011;25538;48.392;9.976;2022-12-29T16:53:41;6.85;;;6.25;;
39864;SDS011;25538;48.392;9.976;2022-12-29T16:56:15;5.55;;;5.05;;
39864;SDS011;25538;48.392;9.976;2022-12-29T16:58:48;6.75;;;5.57;;
39864;SDS011;25538;48.392;9.976;2022-12-29T17:01:16;7.15;;;5.63;;
39864;SDS011;25538;48.392;9.976;2022-12-29T17:03:53;6.95;;;6.25;;
39864;SDS011;25538;48.392;9.976;2022-12-29T17:06:23;6.30;;;5.65;;
39864;SDS011;25538;48.392;9.976;2022-12-29T17:08:49;6.95;;;5.38;;
39864;SDS011;25538;48.392;9.976;2022-12-29T17:16:56;4.75;;;4.35;;
39864;SDS011;25538;48.392;9.976;2022-12-29T17:19:32;6.03;;;5.53;;
39864;SDS011;25538;48.392;9.976;2022-12-29T17:22:00;7.03;;;4.93;;
39864;SDS011;25538;48.392;9.976;2022-12-29T17:24:26;5.00;;;4.57;;
39864;SDS011;25538;48.392;9.976;2022-12-29T17:26:53;4.93;;;4.53;;
39864;SDS011;25538;48.392;9.976;2022-12-29T17:29:32;5.68;;;5.18;;
39864;SDS011;25538;48.392;9.976;2022-12-29T17:32:01;6.35;;;5.45;;
39864;SDS011;25538;48.392;9.976;2022-12-29T17:34:29;6.28;;;5.78;;
39864;SDS011;25538;48.392;9.976;2022-12-29T17:36:56;5.78;;;5.18;;
39864;SDS011;25538;48.392;9.976;2022-12-29T17:39:22;6.27;;;5.67;;
39864;SDS011;25538;48.392;9.976;2022-12-29T17:41:47;5.30;;;4.60;;